Taiseimaru — JL6483 — position and weather

sailwx.info

Track history (hours):
 
Tides and Currents Weather Stations Pressure Air Temp Water Temp Dewpoint Dewpoint Depression Visibility Wind Speed Wind Dir Waves Ship Positions

Taiseimaru

Last reported at 2014-Oct-02 13:33 UTC. Time now 2014-Oct-02 14:32 UTC.
Position N 35°28' E 139°42'.

Length 84 m; draft 4.7 m.

Type: Cargo ship. MMSI: 431500568.

Date/timePositionNaut miles runAvg speedWind from/ knotsBaromVisibWave heightAir tempDewpointWater temp
2014-Oct-02 13:33N 35°28' E 139°42'0 0.0
2014-Oct-02 12:33N 35°28' E 139°42'0 0.0
2014-Oct-02 11:33N 35°28' E 139°42'0 0.0
2014-Oct-02 10:30N 35°28' E 139°42'0 0.0
2014-Oct-02 09:33N 35°28' E 139°42'0 0.0
2014-Oct-02 08:33N 35°28' E 139°42'0 0.0
2014-Oct-02 07:33N 35°28' E 139°42'0 0.0
2014-Oct-02 06:33N 35°28' E 139°42'1 1.5
2014-Oct-02 05:33N 35°27' E 139°43'3 3.0
2014-Oct-02 04:33N 35°24' E 139°44'0 0.0
2014-Oct-02 03:33N 35°24' E 139°44'0 0.0
2014-Oct-02 02:33N 35°24' E 139°44'0 0.0
2014-Oct-02 01:33N 35°24' E 139°44'0 0.1
2014-Oct-02 00:32N 35°24' E 139°44'0 0.0
2014-Oct-01 23:32N 35°24' E 139°44'0 0.3
2014-Oct-01 22:34N 35°24' E 139°44'4 3.9
2014-Oct-01 21:33N 35°28' E 139°43'0 0.0
2014-Oct-01 20:33N 35°28' E 139°43'0 0.0
2014-Oct-01 19:33N 35°28' E 139°43'0 0.0
2014-Oct-01 18:33N 35°28' E 139°43'0 0.0
2014-Oct-01 17:33N 35°28' E 139°43'0 0.0
2014-Oct-01 16:33N 35°28' E 139°43'0 0.0
2014-Oct-01 15:32N 35°28' E 139°43'0 0.0
2014-Oct-01 14:32N 35°28' E 139°43'0 0.0
2014-Oct-01 13:32N 35°28' E 139°43'0 0.0
2014-Oct-01 12:32N 35°28' E 139°43'3 3.1
2014-Oct-01 11:34N 35°26' E 139°45'1 1.4
2014-Oct-01 10:31N 35°24' E 139°44'2 2.0
2014-Oct-01 09:33N 35°26' E 139°43'4 4.3
2014-Oct-01 08:31N 35°29' E 139°39'0 0.0
2014-Oct-01 07:31N 35°29' E 139°39'0 0.0
2014-Oct-01 06:31N 35°29' E 139°39'0 0.0
2014-Oct-01 05:31N 35°29' E 139°39'0 0.0
2014-Oct-01 04:31N 35°29' E 139°39'1 1.3
2014-Oct-01 03:33N 35°28' E 139°40'6 6.3
2014-Oct-01 02:33N 35°22' E 139°43'9 8.7
2014-Oct-01 01:33N 35°14' E 139°47'  
Track history (hours):
 
Tides and Currents Weather Stations Pressure Air Temp Water Temp Dewpoint Dewpoint Depression Visibility Wind Speed Wind Dir Waves Ship Positions

Taiseimaru

Last reported at 2014-Oct-02 13:33 UTC. Time now 2014-Oct-02 14:32 UTC.
Position N 35°28' E 139°42'.

Length 84 m; draft 4.7 m.

Type: Cargo ship. MMSI: 431500568.

Date/timePositionNaut miles runAvg speedWind from/ knotsBaromVisibWave heightAir tempDewpointWater temp
2014-Oct-02 13:33N 35°28' E 139°42'0 0.0
2014-Oct-02 12:33N 35°28' E 139°42'0 0.0
2014-Oct-02 11:33N 35°28' E 139°42'0 0.0
2014-Oct-02 10:30N 35°28' E 139°42'0 0.0
2014-Oct-02 09:33N 35°28' E 139°42'0 0.0
2014-Oct-02 08:33N 35°28' E 139°42'0 0.0
2014-Oct-02 07:33N 35°28' E 139°42'0 0.0
2014-Oct-02 06:33N 35°28' E 139°42'1 1.5
2014-Oct-02 05:33N 35°27' E 139°43'3 3.0
2014-Oct-02 04:33N 35°24' E 139°44'0 0.0
2014-Oct-02 03:33N 35°24' E 139°44'0 0.0
2014-Oct-02 02:33N 35°24' E 139°44'0 0.0
2014-Oct-02 01:33N 35°24' E 139°44'0 0.1
2014-Oct-02 00:32N 35°24' E 139°44'0 0.0
2014-Oct-01 23:32N 35°24' E 139°44'0 0.3
2014-Oct-01 22:34N 35°24' E 139°44'4 3.9
2014-Oct-01 21:33N 35°28' E 139°43'0 0.0
2014-Oct-01 20:33N 35°28' E 139°43'0 0.0
2014-Oct-01 19:33N 35°28' E 139°43'0 0.0
2014-Oct-01 18:33N 35°28' E 139°43'0 0.0
2014-Oct-01 17:33N 35°28' E 139°43'0 0.0
2014-Oct-01 16:33N 35°28' E 139°43'0 0.0
2014-Oct-01 15:32N 35°28' E 139°43'0 0.0
2014-Oct-01 14:32N 35°28' E 139°43'0 0.0
2014-Oct-01 13:32N 35°28' E 139°43'0 0.0
2014-Oct-01 12:32N 35°28' E 139°43'3 3.1
2014-Oct-01 11:34N 35°26' E 139°45'1 1.4
2014-Oct-01 10:31N 35°24' E 139°44'2 2.0
2014-Oct-01 09:33N 35°26' E 139°43'4 4.3
2014-Oct-01 08:31N 35°29' E 139°39'0 0.0
2014-Oct-01 07:31N 35°29' E 139°39'0 0.0
2014-Oct-01 06:31N 35°29' E 139°39'0 0.0
2014-Oct-01 05:31N 35°29' E 139°39'0 0.0
2014-Oct-01 04:31N 35°29' E 139°39'1 1.3
2014-Oct-01 03:33N 35°28' E 139°40'6 6.3
2014-Oct-01 02:33N 35°22' E 139°43'9 8.7
2014-Oct-01 01:33N 35°14' E 139°47'  

Dump ship's entire track history